createdAt,value
2018-12-12T00:01:17.294Z,0.47
2018-12-12T00:03:55.695Z,0.40
2018-12-12T00:06:29.615Z,0.60
2018-12-12T00:09:04.791Z,0.40
2018-12-12T00:11:38.774Z,0.30
2018-12-12T00:14:12.983Z,0.30
2018-12-12T00:16:47.039Z,0.40
2018-12-12T00:24:26.927Z,0.60
2018-12-12T00:27:01.063Z,0.40
2018-12-12T00:29:35.080Z,0.37
2018-12-12T00:32:09.154Z,0.37
2018-12-12T00:34:47.365Z,0.50
2018-12-12T00:37:22.172Z,0.43
2018-12-12T00:39:56.520Z,0.40
2018-12-12T00:42:31.263Z,0.60
2018-12-12T00:45:06.295Z,0.30
2018-12-12T00:47:40.578Z,0.37
2018-12-12T00:50:14.994Z,0.20
2018-12-12T00:52:49.140Z,0.40
2018-12-12T00:55:23.034Z,0.40
2018-12-12T00:57:57.493Z,0.40
2018-12-12T01:00:31.345Z,0.40
2018-12-12T01:03:05.317Z,0.40
2018-12-12T01:05:39.226Z,0.30
2018-12-12T01:08:13.387Z,0.30
2018-12-12T01:10:49.400Z,0.40
2018-12-12T01:13:23.651Z,0.40
2018-12-12T01:15:57.703Z,0.60
2018-12-12T01:18:31.807Z,0.50
2018-12-12T01:21:06.133Z,0.90
2018-12-12T01:23:44.242Z,0.80
2018-12-12T01:26:18.127Z,0.60
2018-12-12T01:28:52.446Z,0.80
2018-12-12T01:31:26.603Z,0.80
2018-12-12T01:34:00.440Z,0.90
2018-12-12T01:36:34.489Z,0.70
2018-12-12T01:39:09.038Z,0.70
2018-12-12T01:41:42.799Z,0.77
2018-12-12T01:44:17.150Z,0.70
2018-12-12T01:46:51.231Z,0.70
2018-12-12T01:49:25.065Z,1.07
2018-12-12T01:51:59.042Z,0.83
2018-12-12T01:54:33.289Z,0.70
2018-12-12T01:57:07.192Z,0.80
2018-12-12T01:59:41.094Z,1.20
2018-12-12T02:02:16.278Z,1.13
2018-12-12T02:04:50.750Z,1.17
2018-12-12T02:07:25.960Z,1.20
2018-12-12T02:09:59.798Z,1.47
2018-12-12T02:12:34.026Z,1.27
2018-12-12T02:15:08.214Z,1.10
2018-12-12T02:17:46.860Z,1.10
2018-12-12T02:20:20.872Z,1.20
2018-12-12T02:22:55.010Z,1.30
2018-12-12T02:25:33.318Z,1.30
2018-12-12T02:28:07.791Z,1.30
2018-12-12T02:30:46.130Z,1.53
2018-12-12T02:33:20.321Z,1.73
2018-12-12T02:35:54.621Z,1.87
2018-12-12T02:38:29.011Z,2.23
2018-12-12T02:41:02.792Z,2.10
2018-12-12T02:43:37.085Z,2.60
2018-12-12T02:46:10.966Z,2.80
2018-12-12T02:48:45.313Z,3.27
2018-12-12T02:51:19.374Z,2.47
2018-12-12T02:53:53.482Z,2.67
2018-12-12T02:56:31.924Z,2.90
2018-12-12T02:59:06.402Z,2.90
2018-12-12T03:01:40.330Z,3.00
2018-12-12T03:04:14.413Z,3.00
2018-12-12T03:06:48.478Z,2.70
2018-12-12T03:09:22.969Z,3.33
2018-12-12T03:11:56.940Z,2.53
2018-12-12T03:14:31.127Z,2.90
2018-12-12T03:17:05.545Z,2.30
2018-12-12T03:19:39.754Z,2.40
2018-12-12T03:22:13.870Z,2.20
2018-12-12T03:24:47.997Z,2.33
2018-12-12T03:40:07.443Z,3.20
2018-12-12T03:42:41.722Z,2.50
2018-12-12T03:45:15.870Z,3.20
2018-12-12T03:47:50.062Z,2.83
2018-12-12T03:50:24.045Z,3.30
2018-12-12T03:52:58.224Z,3.00
2018-12-12T03:55:32.395Z,3.10
2018-12-12T03:58:06.349Z,3.10
2018-12-12T04:00:40.726Z,2.87
2018-12-12T04:03:14.590Z,3.40
2018-12-12T04:05:49.114Z,3.67
2018-12-12T04:08:27.505Z,4.57
2018-12-12T04:11:01.539Z,5.10
2018-12-12T04:13:35.532Z,5.17
2018-12-12T04:16:09.449Z,3.53
2018-12-12T04:18:47.875Z,4.47
2018-12-12T04:21:21.675Z,4.80
2018-12-12T04:23:55.979Z,4.43
2018-12-12T04:26:29.857Z,4.07
2018-12-12T04:29:04.215Z,4.60
2018-12-12T04:31:38.267Z,4.33
2018-12-12T04:34:12.270Z,3.83
2018-12-12T04:36:46.517Z,3.43
2018-12-12T04:39:20.684Z,3.30
2018-12-12T04:41:53.514Z,3.47
2018-12-12T04:44:27.759Z,3.53
2018-12-12T04:47:01.775Z,2.90
2018-12-12T04:49:36.334Z,3.33
2018-12-12T04:52:10.283Z,2.73
2018-12-12T04:54:44.263Z,2.60
2018-12-12T04:57:18.546Z,2.70
2018-12-12T04:59:57.425Z,3.10
2018-12-12T05:02:31.768Z,2.83
2018-12-12T05:05:06.187Z,3.03
2018-12-12T05:07:40.160Z,3.40
2018-12-12T05:10:14.051Z,3.93
2018-12-12T05:12:48.253Z,3.80
2018-12-12T05:15:22.359Z,3.23
2018-12-12T05:17:56.762Z,3.73
2018-12-12T05:20:35.498Z,8.60
2018-12-12T05:23:09.525Z,4.07
2018-12-12T05:25:43.900Z,4.40
2018-12-12T05:28:18.025Z,3.77
2018-12-12T05:30:53.195Z,3.57
2018-12-12T05:33:27.204Z,3.83
2018-12-12T05:36:01.308Z,4.70
2018-12-12T05:38:35.210Z,6.93
2018-12-12T05:41:09.236Z,4.63
2018-12-12T05:43:43.889Z,3.83
2018-12-12T05:53:56.902Z,4.27
2018-12-12T05:56:35.491Z,3.90
2018-12-12T05:59:09.804Z,4.13
2018-12-12T06:01:44.111Z,4.33
2018-12-12T06:04:22.780Z,4.40
2018-12-12T06:06:56.953Z,4.10
2018-12-12T06:09:30.985Z,4.10
2018-12-12T06:12:04.923Z,4.27
2018-12-12T06:14:39.255Z,4.27
2018-12-12T06:17:15.327Z,3.83
2018-12-12T06:19:49.766Z,4.47
2018-12-12T06:22:24.868Z,4.73
2018-12-12T06:24:58.671Z,5.13
2018-12-12T06:27:32.789Z,4.90
2018-12-12T06:30:08.361Z,4.60
2018-12-12T06:32:43.057Z,15.27
2018-12-12T06:35:17.250Z,28.80
2018-12-12T06:37:51.506Z,17.23
2018-12-12T06:40:26.004Z,5.37
2018-12-12T06:43:00.018Z,5.20
2018-12-12T06:45:34.175Z,4.70
2018-12-12T06:48:08.508Z,5.47
2018-12-12T06:50:42.711Z,4.70
2018-12-12T06:58:22.682Z,5.30
2018-12-12T07:01:00.733Z,5.23
2018-12-12T07:03:39.007Z,5.70
2018-12-12T07:06:12.861Z,6.10
2018-12-12T07:08:52.013Z,6.30
2018-12-12T07:11:25.983Z,7.03
2018-12-12T07:13:59.969Z,6.20
2018-12-12T07:16:34.255Z,5.43
2018-12-12T07:19:08.272Z,5.97
2018-12-12T07:21:42.677Z,5.20
2018-12-12T07:24:16.522Z,5.17
2018-12-12T07:26:54.776Z,4.73
2018-12-12T07:29:33.087Z,5.83
2018-12-12T07:32:06.981Z,5.87
2018-12-12T07:34:41.235Z,5.27
2018-12-12T07:37:15.139Z,5.07
2018-12-12T07:39:49.122Z,4.97
2018-12-12T07:42:27.277Z,4.93
2018-12-12T07:45:01.222Z,5.20
2018-12-12T07:47:35.187Z,5.13
2018-12-12T07:50:09.223Z,5.37
2018-12-12T07:52:43.877Z,5.30
2018-12-12T07:55:17.954Z,5.60
2018-12-12T07:57:52.023Z,5.50
2018-12-12T08:00:26.331Z,4.90
2018-12-12T08:03:06.408Z,5.20
2018-12-12T08:05:40.297Z,5.23
2018-12-12T08:08:18.555Z,4.60
2018-12-12T08:10:52.475Z,4.97
2018-12-12T08:13:30.484Z,5.07
2018-12-12T08:16:05.003Z,4.50
2018-12-12T08:18:43.754Z,5.57
2018-12-12T08:21:18.006Z,5.10
2018-12-12T08:23:52.257Z,5.43
2018-12-12T08:26:26.368Z,4.97
2018-12-12T08:29:04.226Z,6.07
2018-12-12T08:31:38.442Z,5.67
2018-12-12T08:34:12.635Z,5.67
2018-12-12T08:36:50.997Z,5.87
2018-12-12T08:39:25.087Z,5.60
2018-12-12T08:41:59.334Z,5.97
2018-12-12T08:44:37.756Z,5.43
2018-12-12T08:47:15.764Z,5.97
2018-12-12T08:49:49.635Z,6.83
2018-12-12T08:52:23.908Z,6.30
2018-12-12T08:54:57.787Z,5.67
2018-12-12T08:57:32.068Z,7.07
2018-12-12T09:00:06.718Z,6.30
2018-12-12T09:02:45.411Z,5.83
2018-12-12T09:05:19.383Z,5.33
2018-12-12T09:07:54.057Z,5.63
2018-12-12T09:10:29.272Z,5.47
2018-12-12T09:13:03.445Z,5.47
2018-12-12T09:15:37.690Z,5.63
2018-12-12T09:18:15.833Z,4.80
2018-12-12T09:20:49.974Z,4.40
2018-12-12T09:23:24.087Z,4.10
2018-12-12T09:26:02.298Z,8.67
2018-12-12T09:28:37.068Z,4.40
2018-12-12T09:31:18.195Z,3.90
2018-12-12T09:33:52.363Z,3.90
2018-12-12T09:36:30.628Z,4.10
2018-12-12T09:39:07.683Z,4.37
2018-12-12T09:41:41.928Z,4.63
2018-12-12T09:44:21.005Z,4.63
2018-12-12T09:46:55.470Z,4.23
2018-12-12T09:49:29.467Z,4.87
2018-12-12T09:52:03.993Z,4.30
2018-12-12T09:54:38.073Z,4.40
2018-12-12T09:57:12.298Z,4.10
2018-12-12T09:59:46.628Z,4.10
2018-12-12T10:02:20.925Z,3.70
2018-12-12T10:10:04.758Z,3.50
2018-12-12T10:12:38.642Z,3.83
2018-12-12T10:15:12.667Z,3.97
2018-12-12T10:17:50.913Z,3.70
2018-12-12T10:20:28.832Z,3.90
2018-12-12T10:23:06.823Z,4.30
2018-12-12T10:25:45.205Z,4.23
2018-12-12T10:28:19.471Z,4.10
2018-12-12T10:30:57.623Z,4.57
2018-12-12T10:33:37.691Z,4.17
2018-12-12T10:36:11.802Z,3.80
2018-12-12T10:38:46.151Z,3.67
2018-12-12T10:41:24.320Z,3.60
2018-12-12T10:44:02.453Z,3.67
2018-12-12T10:46:36.942Z,3.80
2018-12-12T10:49:11.106Z,3.40
2018-12-12T10:51:46.374Z,3.30
2018-12-12T10:54:20.742Z,3.43
2018-12-12T10:56:55.100Z,3.33
2018-12-12T10:59:29.018Z,3.33
2018-12-12T11:02:07.924Z,3.33
2018-12-12T11:04:41.967Z,3.43
2018-12-12T11:07:16.011Z,3.33
2018-12-12T11:09:50.654Z,3.37
2018-12-12T11:12:28.883Z,3.67
2018-12-12T11:15:03.751Z,3.90
2018-12-12T11:17:38.640Z,3.50
2018-12-12T11:20:16.659Z,3.43
2018-12-12T11:22:50.925Z,4.00
2018-12-12T11:25:25.602Z,3.40
2018-12-12T11:28:04.122Z,3.63
2018-12-12T11:30:38.846Z,3.40
2018-12-12T11:33:13.396Z,3.27
2018-12-12T11:35:47.354Z,3.80
2018-12-12T11:38:25.187Z,3.53
2018-12-12T11:41:00.507Z,3.40
2018-12-12T11:43:35.229Z,3.90
2018-12-12T11:46:10.146Z,3.90
2018-12-12T11:48:44.303Z,3.60
2018-12-12T11:51:22.439Z,5.37
2018-12-12T11:53:56.599Z,5.10
2018-12-12T11:56:30.906Z,8.57
2018-12-12T11:59:09.095Z,6.00
2018-12-12T12:01:47.195Z,10.13
2018-12-12T12:04:21.375Z,4.43
2018-12-12T12:06:55.750Z,4.90
2018-12-12T12:09:33.888Z,4.87
2018-12-12T12:12:07.895Z,4.50
2018-12-12T12:14:44.124Z,4.43
2018-12-12T12:17:22.676Z,4.83
2018-12-12T12:19:57.008Z,4.27
2018-12-12T12:22:30.940Z,4.03
2018-12-12T12:25:05.397Z,4.23
2018-12-12T12:27:39.525Z,4.60
2018-12-12T12:30:13.569Z,4.40
2018-12-12T12:32:51.561Z,4.23
2018-12-12T12:35:25.451Z,4.90
2018-12-12T12:37:59.561Z,4.80
2018-12-12T12:40:37.719Z,5.30
2018-12-12T12:43:11.748Z,4.93
2018-12-12T12:45:49.948Z,5.17
2018-12-12T12:48:27.998Z,5.20
2018-12-12T12:51:06.022Z,5.53
2018-12-12T12:53:40.095Z,5.30
2018-12-12T12:56:14.326Z,5.30
2018-12-12T12:58:48.728Z,6.73
2018-12-12T13:01:22.588Z,5.80
2018-12-12T13:03:56.636Z,5.43
2018-12-12T13:06:30.718Z,5.30
2018-12-12T13:09:08.235Z,4.87
2018-12-12T13:11:46.972Z,4.70
2018-12-12T13:14:21.392Z,4.90
2018-12-12T13:16:55.549Z,5.00
2018-12-12T13:19:29.755Z,4.53
2018-12-12T13:22:04.279Z,3.90
2018-12-12T13:24:38.217Z,4.30
2018-12-12T13:27:12.168Z,4.07
2018-12-12T13:29:46.616Z,4.60
2018-12-12T13:32:21.025Z,3.97
2018-12-12T13:34:55.156Z,4.33
2018-12-12T13:37:29.259Z,5.50
2018-12-12T13:40:08.270Z,14.03
2018-12-12T13:42:42.691Z,4.90
2018-12-12T13:45:20.682Z,4.20
2018-12-12T13:47:58.755Z,4.40
2018-12-12T13:50:32.899Z,4.40
2018-12-12T13:53:06.853Z,4.47
2018-12-12T13:55:45.111Z,10.90
2018-12-12T13:58:19.212Z,5.60
2018-12-12T14:00:54.622Z,8.27
2018-12-12T14:03:29.420Z,4.30
2018-12-12T14:06:03.998Z,14.90
2018-12-12T14:08:38.690Z,8.90
2018-12-12T14:11:13.013Z,11.57
2018-12-12T14:13:47.154Z,14.77
2018-12-12T14:16:25.204Z,12.93
2018-12-12T14:18:59.527Z,6.50
2018-12-12T14:21:37.400Z,5.03
2018-12-12T14:24:12.078Z,4.87
2018-12-12T14:26:46.136Z,4.90
2018-12-12T14:29:20.109Z,4.83
2018-12-12T14:31:54.222Z,4.73
2018-12-12T14:34:29.354Z,4.73
2018-12-12T14:37:04.221Z,4.60
2018-12-12T14:39:38.306Z,5.50
2018-12-12T14:42:13.171Z,5.63
2018-12-12T14:44:47.189Z,4.77
2018-12-12T14:47:21.391Z,4.87
2018-12-12T14:49:55.497Z,5.60
2018-12-12T14:52:30.384Z,5.33
2018-12-12T14:55:08.948Z,5.40
2018-12-12T14:57:43.102Z,5.50
2018-12-12T15:00:21.427Z,5.63
2018-12-12T15:02:55.577Z,5.57
2018-12-12T15:05:30.586Z,5.63
2018-12-12T15:08:05.099Z,5.63
2018-12-12T15:10:39.918Z,5.63
2018-12-12T15:13:13.983Z,6.03
2018-12-12T15:15:52.182Z,7.33
2018-12-12T15:18:26.268Z,6.13
2018-12-12T15:21:00.228Z,6.60
2018-12-12T15:23:38.390Z,6.83
2018-12-12T15:26:12.633Z,6.03
2018-12-12T15:28:50.653Z,6.03
2018-12-12T15:31:24.688Z,5.70
2018-12-12T15:34:03.367Z,6.30
2018-12-12T15:36:41.931Z,6.40
2018-12-12T15:39:15.939Z,8.23
2018-12-12T15:41:50.589Z,8.27
2018-12-12T15:44:25.022Z,7.80
2018-12-12T15:46:58.956Z,11.30
2018-12-12T15:49:37.298Z,12.63
2018-12-12T15:52:11.675Z,9.50
2018-12-12T15:54:45.849Z,7.67
2018-12-12T15:57:23.978Z,6.83
2018-12-12T15:59:57.959Z,7.03
2018-12-12T16:02:36.259Z,6.53
2018-12-12T16:05:10.207Z,6.60
2018-12-12T16:07:44.213Z,7.30
2018-12-12T16:10:18.576Z,6.80
2018-12-12T16:12:52.849Z,6.67
2018-12-12T16:15:26.910Z,6.70
2018-12-12T16:18:01.185Z,7.63
2018-12-12T16:20:35.555Z,6.07
2018-12-12T16:23:09.724Z,5.90
2018-12-12T16:25:43.558Z,8.07
2018-12-12T16:28:17.680Z,11.70
2018-12-12T16:30:51.818Z,19.37
2018-12-12T16:33:26.197Z,9.30
2018-12-12T16:36:00.258Z,10.13
2018-12-12T16:38:34.448Z,10.60
2018-12-12T16:41:09.152Z,12.23
2018-12-12T16:43:48.999Z,7.73
2018-12-12T16:46:25.405Z,7.60
2018-12-12T16:48:59.749Z,6.30
2018-12-12T16:51:33.844Z,6.77
2018-12-12T16:54:11.807Z,6.47
2018-12-12T16:56:49.803Z,7.40
2018-12-12T16:59:25.018Z,6.67
2018-12-12T17:01:59.493Z,8.38
2018-12-12T17:04:33.838Z,7.07
2018-12-12T17:07:07.756Z,7.17
2018-12-12T17:09:46.094Z,7.20
2018-12-12T17:12:20.407Z,7.10
2018-12-12T17:14:54.836Z,7.33
2018-12-12T17:17:29.145Z,7.13
2018-12-12T17:20:04.112Z,8.20
2018-12-12T17:22:38.574Z,8.00
2018-12-12T17:25:12.699Z,8.50
2018-12-12T17:27:47.739Z,9.00
2018-12-12T17:30:25.244Z,9.23
2018-12-12T17:33:00.274Z,9.37
2018-12-12T17:35:34.325Z,9.17
2018-12-12T17:38:08.838Z,8.67
2018-12-12T17:40:42.941Z,9.70
2018-12-12T17:43:21.051Z,10.07
2018-12-12T17:45:55.110Z,12.40
2018-12-12T17:48:33.279Z,10.93
2018-12-12T17:51:08.057Z,17.23
2018-12-12T17:53:42.263Z,13.20
2018-12-12T17:56:16.372Z,10.70
2018-12-12T17:58:50.442Z,10.33
2018-12-12T18:01:24.611Z,10.07
2018-12-12T18:03:58.636Z,9.20
2018-12-12T18:06:33.104Z,10.07
2018-12-12T18:09:09.503Z,9.47
2018-12-12T18:11:44.058Z,11.20
2018-12-12T18:14:18.540Z,10.80
2018-12-12T18:16:52.660Z,10.03
2018-12-12T18:19:26.930Z,9.57
2018-12-12T18:22:00.939Z,22.90
2018-12-12T18:24:36.463Z,29.93
2018-12-12T18:27:12.176Z,10.83
2018-12-12T18:29:46.889Z,9.90
2018-12-12T18:32:20.755Z,11.03
2018-12-12T18:34:55.038Z,10.47
2018-12-12T18:37:29.165Z,10.23
2018-12-12T18:40:03.362Z,16.47
2018-12-12T18:42:37.454Z,13.13
2018-12-12T18:45:16.190Z,16.53
2018-12-12T18:47:50.845Z,23.87
2018-12-12T18:50:25.140Z,18.10
2018-12-12T18:52:59.303Z,12.17
2018-12-12T18:55:33.565Z,11.07
2018-12-12T18:58:08.519Z,12.83
2018-12-12T19:00:43.837Z,11.83
2018-12-12T19:03:19.802Z,11.20
2018-12-12T19:05:56.061Z,10.43
2018-12-12T19:08:39.860Z,11.03
2018-12-12T19:11:15.472Z,12.10
2018-12-12T19:13:49.937Z,21.43
2018-12-12T19:16:24.186Z,17.13
2018-12-12T19:18:58.142Z,17.47
2018-12-12T19:21:32.976Z,18.03
2018-12-12T19:24:07.212Z,17.87
2018-12-12T19:26:41.338Z,17.07
2018-12-12T19:29:15.692Z,15.63
2018-12-12T19:31:51.032Z,14.43
2018-12-12T19:34:25.803Z,13.47
2018-12-12T19:36:59.780Z,16.80
2018-12-12T19:39:34.102Z,17.47
2018-12-12T19:42:08.180Z,15.67
2018-12-12T19:44:42.375Z,14.20
2018-12-12T19:47:16.510Z,16.73
2018-12-12T19:49:54.549Z,16.00
2018-12-12T19:52:29.259Z,15.40
2018-12-12T19:55:04.880Z,13.80
2018-12-12T19:57:39.345Z,34.97
2018-12-12T20:00:13.776Z,24.13
2018-12-12T20:02:48.858Z,14.43
2018-12-12T20:05:27.185Z,23.77
2018-12-12T20:08:05.162Z,14.60
2018-12-12T20:10:39.671Z,17.03
2018-12-12T20:13:14.562Z,15.80
2018-12-12T20:15:49.538Z,14.43
2018-12-12T20:18:24.376Z,14.43
2018-12-12T20:20:58.676Z,13.07
2018-12-12T20:23:32.718Z,13.03
2018-12-12T20:26:07.145Z,13.73
2018-12-12T20:28:45.723Z,12.77
2018-12-12T20:31:21.145Z,13.47
2018-12-12T20:33:55.870Z,13.07
2018-12-12T20:36:30.982Z,13.80
2018-12-12T20:39:07.749Z,11.83
2018-12-12T20:41:42.399Z,11.83
2018-12-12T20:44:17.051Z,11.90
2018-12-12T20:46:52.445Z,30.17
2018-12-12T20:49:26.855Z,15.93
2018-12-12T20:52:05.422Z,13.33
2018-12-12T20:54:40.113Z,11.60
2018-12-12T20:57:18.481Z,23.10
2018-12-12T20:59:52.524Z,18.97
2018-12-12T21:02:30.576Z,12.67
2018-12-12T21:05:08.925Z,12.50
2018-12-12T21:07:43.695Z,12.23
2018-12-12T21:10:18.548Z,11.83
2018-12-12T21:12:53.446Z,12.50
2018-12-12T21:15:27.506Z,12.90
2018-12-12T21:18:01.438Z,12.00
2018-12-12T21:20:35.684Z,12.00
2018-12-12T21:23:13.802Z,13.20
2018-12-12T21:25:48.399Z,14.70
2018-12-12T21:28:27.400Z,14.23
2018-12-12T21:31:01.698Z,14.50
2018-12-12T21:36:10.070Z,21.60
2018-12-12T21:38:45.609Z,14.40
2018-12-12T21:41:20.223Z,12.73
2018-12-12T21:43:54.906Z,15.67
2018-12-12T21:46:33.792Z,16.13
2018-12-12T21:49:08.527Z,15.67
2018-12-12T21:51:42.946Z,49.60
2018-12-12T21:54:17.610Z,32.40
2018-12-12T21:56:52.422Z,16.57
2018-12-12T21:59:26.895Z,13.20
2018-12-12T22:02:02.247Z,19.07
2018-12-12T22:04:39.397Z,25.47
2018-12-12T22:07:13.702Z,18.07
2018-12-12T22:09:49.658Z,17.20
2018-12-12T22:12:24.151Z,14.03
2018-12-12T22:15:02.346Z,30.07
2018-12-12T22:17:36.863Z,24.33
2018-12-12T22:20:11.991Z,17.03
2018-12-12T22:22:46.091Z,15.33
2018-12-12T22:25:21.347Z,15.10
2018-12-12T22:27:56.316Z,15.17
2018-12-12T22:30:31.606Z,15.33
2018-12-12T22:33:06.193Z,14.87
2018-12-12T22:35:40.669Z,16.37
2018-12-12T22:48:29.675Z,14.70
2018-12-12T22:51:04.799Z,15.97
2018-12-12T22:53:40.879Z,13.53
2018-12-12T22:56:16.017Z,14.30
2018-12-12T22:58:51.057Z,14.03
2018-12-12T23:01:25.502Z,12.23
2018-12-12T23:04:04.392Z,13.10
2018-12-12T23:06:39.289Z,13.03
2018-12-12T23:09:14.121Z,12.90
2018-12-12T23:11:48.099Z,13.80
2018-12-12T23:14:22.315Z,13.03
2018-12-12T23:16:56.670Z,13.43
2018-12-12T23:19:30.826Z,12.40
2018-12-12T23:22:09.523Z,13.50
2018-12-12T23:24:43.381Z,13.70
2018-12-12T23:27:21.582Z,13.00
2018-12-12T23:29:59.660Z,14.63
2018-12-12T23:32:33.586Z,27.03
2018-12-12T23:35:07.854Z,28.40
2018-12-12T23:37:42.502Z,20.63
2018-12-12T23:40:16.762Z,22.57
2018-12-12T23:42:55.391Z,14.80
2018-12-12T23:45:30.075Z,12.87
2018-12-12T23:48:04.142Z,13.90
2018-12-12T23:53:11.779Z,12.70
2018-12-12T23:55:45.741Z,12.77
2018-12-12T23:58:19.765Z,13.00
